sensor_id;sensor_type;location;lat;lon;timestamp;P1;durP1;ratioP1;P2;durP2;ratioP2
75798;SDS011;65035;44.726;37.764;2023-03-05T00:03:02;1.17;;;0.20;;
75798;SDS011;65035;44.726;37.764;2023-03-05T00:11:00;1.05;;;0.30;;
75798;SDS011;65035;44.726;37.764;2023-03-05T00:24:12;1.02;;;0.30;;
75798;SDS011;65035;44.726;37.764;2023-03-05T00:25:18;1.02;;;0.45;;
75798;SDS011;65035;44.726;37.764;2023-03-05T00:28:43;1.00;;;0.32;;
75798;SDS011;65035;44.726;37.764;2023-03-05T00:29:48;1.20;;;0.45;;
75798;SDS011;65035;44.726;37.764;2023-03-05T00:32:17;2.17;;;0.60;;
75798;SDS011;65035;44.726;37.764;2023-03-05T00:38:43;1.42;;;1.33;;
75798;SDS011;65035;44.726;37.764;2023-03-05T00:39:46;1.92;;;1.40;;
75798;SDS011;65035;44.726;37.764;2023-03-05T00:54:25;1.20;;;0.35;;
75798;SDS011;65035;44.726;37.764;2023-03-05T00:59:04;1.80;;;0.40;;
75798;SDS011;65035;44.726;37.764;2023-03-05T01:00:07;1.17;;;0.20;;
75798;SDS011;65035;44.726;37.764;2023-03-05T01:01:11;1.85;;;0.55;;
75798;SDS011;65035;44.726;37.764;2023-03-05T01:11:03;1.17;;;0.40;;
75798;SDS011;65035;44.726;37.764;2023-03-05T01:22:19;0.90;;;0.30;;
75798;SDS011;65035;44.726;37.764;2023-03-05T01:32:42;1.48;;;0.28;;
75798;SDS011;65035;44.726;37.764;2023-03-05T01:34:34;1.60;;;0.40;;
75798;SDS011;65035;44.726;37.764;2023-03-05T01:56:01;2.58;;;2.38;;
75798;SDS011;65035;44.726;37.764;2023-03-05T02:03:04;1.23;;;0.30;;
75798;SDS011;65035;44.726;37.764;2023-03-05T02:04:09;2.25;;;0.38;;
75798;SDS011;65035;44.726;37.764;2023-03-05T02:12:05;1.65;;;0.20;;
75798;SDS011;65035;44.726;37.764;2023-03-05T02:13:12;1.05;;;0.22;;
75798;SDS011;65035;44.726;37.764;2023-03-05T02:21:37;2.97;;;1.58;;
75798;SDS011;65035;44.726;37.764;2023-03-05T02:33:18;2.03;;;1.80;;
75798;SDS011;65035;44.726;37.764;2023-03-05T02:39:21;2.65;;;0.80;;
75798;SDS011;65035;44.726;37.764;2023-03-05T02:40:24;1.52;;;0.55;;
75798;SDS011;65035;44.726;37.764;2023-03-05T02:41:27;1.88;;;0.70;;
75798;SDS011;65035;44.726;37.764;2023-03-05T02:42:31;1.70;;;0.70;;
75798;SDS011;65035;44.726;37.764;2023-03-05T02:53:56;2.25;;;0.60;;
75798;SDS011;65035;44.726;37.764;2023-03-05T02:56:05;2.83;;;0.30;;
75798;SDS011;65035;44.726;37.764;2023-03-05T03:01:52;2.47;;;0.60;;
75798;SDS011;65035;44.726;37.764;2023-03-05T03:02:55;1.83;;;0.40;;
75798;SDS011;65035;44.726;37.764;2023-03-05T03:07:14;1.83;;;1.55;;
75798;SDS011;65035;44.726;37.764;2023-03-05T03:33:07;2.72;;;0.50;;
75798;SDS011;65035;44.726;37.764;2023-03-05T03:34:13;1.67;;;0.32;;
75798;SDS011;65035;44.726;37.764;2023-03-05T03:37:03;2.17;;;0.70;;
75798;SDS011;65035;44.726;37.764;2023-03-05T03:47:49;1.58;;;0.90;;
75798;SDS011;65035;44.726;37.764;2023-03-05T03:48:53;1.30;;;0.52;;
75798;SDS011;65035;44.726;37.764;2023-03-05T03:49:57;2.50;;;0.60;;
75798;SDS011;65035;44.726;37.764;2023-03-05T03:54:12;3.15;;;0.90;;
75798;SDS011;65035;44.726;37.764;2023-03-05T04:08:59;2.83;;;0.57;;
75798;SDS011;65035;44.726;37.764;2023-03-05T04:10:03;2.65;;;0.68;;
75798;SDS011;65035;44.726;37.764;2023-03-05T04:11:06;2.63;;;0.80;;
75798;SDS011;65035;44.726;37.764;2023-03-05T04:12:10;2.28;;;0.98;;
75798;SDS011;65035;44.726;37.764;2023-03-05T04:26:42;2.17;;;0.82;;
75798;SDS011;65035;44.726;37.764;2023-03-05T04:27:45;2.67;;;0.70;;
75798;SDS011;65035;44.726;37.764;2023-03-05T04:32:11;2.53;;;0.30;;
75798;SDS011;65035;44.726;37.764;2023-03-05T04:33:14;1.98;;;0.32;;
75798;SDS011;65035;44.726;37.764;2023-03-05T04:34:18;3.38;;;1.65;;
75798;SDS011;65035;44.726;37.764;2023-03-05T04:35:20;2.45;;;0.40;;
75798;SDS011;65035;44.726;37.764;2023-03-05T04:58:21;2.05;;;0.80;;
75798;SDS011;65035;44.726;37.764;2023-03-05T05:02:02;2.65;;;0.93;;
75798;SDS011;65035;44.726;37.764;2023-03-05T05:03:06;3.80;;;1.13;;
75798;SDS011;65035;44.726;37.764;2023-03-05T05:04:08;3.08;;;0.75;;
75798;SDS011;65035;44.726;37.764;2023-03-05T05:05:12;2.83;;;1.00;;
75798;SDS011;65035;44.726;37.764;2023-03-05T05:06:18;3.88;;;0.77;;
75798;SDS011;65035;44.726;37.764;2023-03-05T05:07:20;3.40;;;0.63;;
75798;SDS011;65035;44.726;37.764;2023-03-05T05:08:27;2.75;;;1.38;;
75798;SDS011;65035;44.726;37.764;2023-03-05T05:09:30;2.53;;;0.93;;
75798;SDS011;65035;44.726;37.764;2023-03-05T05:10:34;3.65;;;1.17;;
75798;SDS011;65035;44.726;37.764;2023-03-05T05:11:40;2.83;;;0.93;;
75798;SDS011;65035;44.726;37.764;2023-03-05T05:12:44;3.10;;;1.25;;
75798;SDS011;65035;44.726;37.764;2023-03-05T05:13:52;3.75;;;1.00;;
75798;SDS011;65035;44.726;37.764;2023-03-05T05:18:25;2.97;;;1.35;;
75798;SDS011;65035;44.726;37.764;2023-03-05T05:19:28;3.78;;;1.08;;
75798;SDS011;65035;44.726;37.764;2023-03-05T05:20:35;4.07;;;1.30;;
75798;SDS011;65035;44.726;37.764;2023-03-05T05:24:31;2.70;;;0.77;;
75798;SDS011;65035;44.726;37.764;2023-03-05T05:26:22;2.70;;;0.98;;
75798;SDS011;65035;44.726;37.764;2023-03-05T05:30:12;4.63;;;2.38;;
75798;SDS011;65035;44.726;37.764;2023-03-05T05:31:15;2.97;;;1.02;;
75798;SDS011;65035;44.726;37.764;2023-03-05T05:32:20;3.00;;;1.20;;
75798;SDS011;65035;44.726;37.764;2023-03-05T05:34:28;3.17;;;2.88;;
75798;SDS011;65035;44.726;37.764;2023-03-05T05:36:34;3.25;;;1.02;;
75798;SDS011;65035;44.726;37.764;2023-03-05T05:37:37;3.55;;;1.73;;
75798;SDS011;65035;44.726;37.764;2023-03-05T05:38:41;3.00;;;1.08;;
75798;SDS011;65035;44.726;37.764;2023-03-05T05:39:44;3.33;;;1.13;;
75798;SDS011;65035;44.726;37.764;2023-03-05T05:40:51;3.22;;;1.35;;
75798;SDS011;65035;44.726;37.764;2023-03-05T05:41:54;4.78;;;1.60;;
75798;SDS011;65035;44.726;37.764;2023-03-05T05:43:45;4.72;;;3.08;;
75798;SDS011;65035;44.726;37.764;2023-03-05T05:44:48;5.65;;;3.30;;
75798;SDS011;65035;44.726;37.764;2023-03-05T05:45:52;3.85;;;3.38;;
75798;SDS011;65035;44.726;37.764;2023-03-05T05:46:55;4.25;;;3.13;;
75798;SDS011;65035;44.726;37.764;2023-03-05T05:47:58;3.95;;;3.25;;
75798;SDS011;65035;44.726;37.764;2023-03-05T05:49:01;3.67;;;3.03;;
75798;SDS011;65035;44.726;37.764;2023-03-05T05:50:04;4.75;;;4.25;;
75798;SDS011;65035;44.726;37.764;2023-03-05T05:51:18;5.03;;;3.47;;
75798;SDS011;65035;44.726;37.764;2023-03-05T05:52:26;7.50;;;2.97;;
75798;SDS011;65035;44.726;37.764;2023-03-05T05:53:29;5.32;;;1.35;;
75798;SDS011;65035;44.726;37.764;2023-03-05T05:54:32;5.50;;;3.05;;
75798;SDS011;65035;44.726;37.764;2023-03-05T05:56:41;5.55;;;3.00;;
75798;SDS011;65035;44.726;37.764;2023-03-05T05:57:44;10.65;;;2.67;;
75798;SDS011;65035;44.726;37.764;2023-03-05T05:58:47;3.25;;;2.58;;
75798;SDS011;65035;44.726;37.764;2023-03-05T05:59:51;4.72;;;3.40;;
75798;SDS011;65035;44.726;37.764;2023-03-05T06:00:54;5.80;;;3.10;;
75798;SDS011;65035;44.726;37.764;2023-03-05T06:01:57;4.78;;;3.22;;
75798;SDS011;65035;44.726;37.764;2023-03-05T06:03:00;4.00;;;3.15;;
75798;SDS011;65035;44.726;37.764;2023-03-05T06:04:05;3.65;;;1.80;;
75798;SDS011;65035;44.726;37.764;2023-03-05T06:05:10;3.78;;;2.67;;
75798;SDS011;65035;44.726;37.764;2023-03-05T06:06:17;4.00;;;2.95;;
75798;SDS011;65035;44.726;37.764;2023-03-05T06:07:22;4.32;;;3.40;;
75798;SDS011;65035;44.726;37.764;2023-03-05T06:08:27;4.72;;;2.47;;
75798;SDS011;65035;44.726;37.764;2023-03-05T06:09:30;4.72;;;3.28;;
75798;SDS011;65035;44.726;37.764;2023-03-05T06:10:33;4.32;;;3.42;;
75798;SDS011;65035;44.726;37.764;2023-03-05T06:11:36;4.25;;;2.72;;
75798;SDS011;65035;44.726;37.764;2023-03-05T06:12:40;5.60;;;2.63;;
75798;SDS011;65035;44.726;37.764;2023-03-05T06:13:43;4.38;;;3.13;;
75798;SDS011;65035;44.726;37.764;2023-03-05T06:17:03;5.97;;;1.95;;
75798;SDS011;65035;44.726;37.764;2023-03-05T06:18:06;5.15;;;2.17;;
75798;SDS011;65035;44.726;37.764;2023-03-05T06:19:12;5.35;;;1.63;;
75798;SDS011;65035;44.726;37.764;2023-03-05T06:22:20;7.10;;;1.75;;
75798;SDS011;65035;44.726;37.764;2023-03-05T06:23:24;4.28;;;1.25;;
75798;SDS011;65035;44.726;37.764;2023-03-05T06:25:38;4.95;;;2.58;;
75798;SDS011;65035;44.726;37.764;2023-03-05T06:26:41;3.65;;;1.52;;
75798;SDS011;65035;44.726;37.764;2023-03-05T06:27:45;3.20;;;1.48;;
75798;SDS011;65035;44.726;37.764;2023-03-05T06:28:48;4.03;;;1.52;;
75798;SDS011;65035;44.726;37.764;2023-03-05T06:30:47;4.75;;;1.98;;
75798;SDS011;65035;44.726;37.764;2023-03-05T06:31:50;6.68;;;1.77;;
75798;SDS011;65035;44.726;37.764;2023-03-05T06:32:53;5.10;;;1.45;;
75798;SDS011;65035;44.726;37.764;2023-03-05T06:33:59;4.85;;;1.52;;
75798;SDS011;65035;44.726;37.764;2023-03-05T06:35:50;6.05;;;1.30;;
75798;SDS011;65035;44.726;37.764;2023-03-05T06:37:56;6.00;;;3.53;;
75798;SDS011;65035;44.726;37.764;2023-03-05T06:38:59;4.78;;;3.10;;
75798;SDS011;65035;44.726;37.764;2023-03-05T06:40:03;5.03;;;2.72;;
75798;SDS011;65035;44.726;37.764;2023-03-05T06:41:08;7.25;;;1.83;;
75798;SDS011;65035;44.726;37.764;2023-03-05T06:42:15;6.07;;;2.60;;
75798;SDS011;65035;44.726;37.764;2023-03-05T06:43:20;4.95;;;4.00;;
75798;SDS011;65035;44.726;37.764;2023-03-05T06:44:23;4.93;;;3.70;;
75798;SDS011;65035;44.726;37.764;2023-03-05T06:45:27;7.28;;;3.50;;
75798;SDS011;65035;44.726;37.764;2023-03-05T06:46:31;5.82;;;4.03;;
75798;SDS011;65035;44.726;37.764;2023-03-05T06:47:35;4.80;;;3.45;;
75798;SDS011;65035;44.726;37.764;2023-03-05T06:53:29;4.30;;;2.97;;
75798;SDS011;65035;44.726;37.764;2023-03-05T06:54:33;3.50;;;2.95;;
75798;SDS011;65035;44.726;37.764;2023-03-05T06:55:36;6.45;;;2.35;;
75798;SDS011;65035;44.726;37.764;2023-03-05T06:56:41;4.28;;;2.90;;
75798;SDS011;65035;44.726;37.764;2023-03-05T06:57:47;4.38;;;2.45;;
75798;SDS011;65035;44.726;37.764;2023-03-05T06:58:50;3.83;;;2.88;;
75798;SDS011;65035;44.726;37.764;2023-03-05T06:59:54;7.05;;;2.85;;
75798;SDS011;65035;44.726;37.764;2023-03-05T07:00:57;4.68;;;1.35;;
75798;SDS011;65035;44.726;37.764;2023-03-05T07:02:00;4.15;;;2.38;;
75798;SDS011;65035;44.726;37.764;2023-03-05T07:04:37;4.03;;;1.88;;
75798;SDS011;65035;44.726;37.764;2023-03-05T07:06:44;3.13;;;1.23;;
75798;SDS011;65035;44.726;37.764;2023-03-05T07:07:47;6.38;;;3.05;;
75798;SDS011;65035;44.726;37.764;2023-03-05T07:10:21;8.32;;;1.63;;
75798;SDS011;65035;44.726;37.764;2023-03-05T07:12:27;4.85;;;1.35;;
75798;SDS011;65035;44.726;37.764;2023-03-05T07:13:30;4.38;;;1.38;;
75798;SDS011;65035;44.726;37.764;2023-03-05T07:14:33;5.60;;;1.80;;
75798;SDS011;65035;44.726;37.764;2023-03-05T07:15:37;4.53;;;1.50;;
75798;SDS011;65035;44.726;37.764;2023-03-05T07:16:41;3.08;;;1.33;;
75798;SDS011;65035;44.726;37.764;2023-03-05T07:17:44;3.38;;;1.73;;
75798;SDS011;65035;44.726;37.764;2023-03-05T07:18:47;6.18;;;1.42;;
75798;SDS011;65035;44.726;37.764;2023-03-05T07:19:50;3.63;;;1.73;;
75798;SDS011;65035;44.726;37.764;2023-03-05T07:20:53;3.65;;;1.33;;
75798;SDS011;65035;44.726;37.764;2023-03-05T07:22:45;4.13;;;1.52;;
75798;SDS011;65035;44.726;37.764;2023-03-05T07:24:36;4.47;;;2.83;;
75798;SDS011;65035;44.726;37.764;2023-03-05T07:25:40;4.35;;;1.88;;
75798;SDS011;65035;44.726;37.764;2023-03-05T07:27:33;4.68;;;2.55;;
75798;SDS011;65035;44.726;37.764;2023-03-05T07:28:38;5.47;;;3.75;;
75798;SDS011;65035;44.726;37.764;2023-03-05T07:29:41;5.15;;;3.25;;
75798;SDS011;65035;44.726;37.764;2023-03-05T07:30:44;5.35;;;3.60;;
75798;SDS011;65035;44.726;37.764;2023-03-05T07:33:42;4.57;;;1.48;;
75798;SDS011;65035;44.726;37.764;2023-03-05T07:34:45;3.88;;;1.27;;
75798;SDS011;65035;44.726;37.764;2023-03-05T07:35:48;3.95;;;1.05;;
75798;SDS011;65035;44.726;37.764;2023-03-05T07:36:51;5.55;;;1.38;;
75798;SDS011;65035;44.726;37.764;2023-03-05T07:37:54;3.67;;;1.50;;
75798;SDS011;65035;44.726;37.764;2023-03-05T07:38:57;3.65;;;1.35;;
75798;SDS011;65035;44.726;37.764;2023-03-05T07:40:00;3.88;;;1.65;;
75798;SDS011;65035;44.726;37.764;2023-03-05T07:41:06;4.13;;;1.92;;
75798;SDS011;65035;44.726;37.764;2023-03-05T07:42:11;5.20;;;1.92;;
75798;SDS011;65035;44.726;37.764;2023-03-05T07:43:26;5.07;;;1.70;;
75798;SDS011;65035;44.726;37.764;2023-03-05T07:45:32;5.35;;;1.17;;
75798;SDS011;65035;44.726;37.764;2023-03-05T07:46:36;3.67;;;1.20;;
75798;SDS011;65035;44.726;37.764;2023-03-05T07:47:39;3.95;;;1.08;;
75798;SDS011;65035;44.726;37.764;2023-03-05T07:48:42;4.43;;;1.63;;
75798;SDS011;65035;44.726;37.764;2023-03-05T07:50:34;2.50;;;1.20;;
75798;SDS011;65035;44.726;37.764;2023-03-05T07:51:41;4.50;;;3.20;;
75798;SDS011;65035;44.726;37.764;2023-03-05T07:52:44;3.80;;;2.35;;
75798;SDS011;65035;44.726;37.764;2023-03-05T07:53:48;4.43;;;2.25;;
75798;SDS011;65035;44.726;37.764;2023-03-05T07:54:53;3.58;;;1.25;;
75798;SDS011;65035;44.726;37.764;2023-03-05T07:55:56;4.03;;;2.55;;
75798;SDS011;65035;44.726;37.764;2023-03-05T07:57:47;4.82;;;1.85;;
75798;SDS011;65035;44.726;37.764;2023-03-05T07:58:50;3.75;;;1.38;;
75798;SDS011;65035;44.726;37.764;2023-03-05T08:00:56;3.53;;;1.58;;
75798;SDS011;65035;44.726;37.764;2023-03-05T08:02:00;6.50;;;1.67;;
75798;SDS011;65035;44.726;37.764;2023-03-05T08:03:03;2.75;;;1.42;;
75798;SDS011;65035;44.726;37.764;2023-03-05T08:04:06;4.97;;;1.17;;
75798;SDS011;65035;44.726;37.764;2023-03-05T08:05:12;3.75;;;2.08;;
75798;SDS011;65035;44.726;37.764;2023-03-05T08:06:16;2.35;;;1.20;;
75798;SDS011;65035;44.726;37.764;2023-03-05T08:07:19;3.95;;;1.58;;
75798;SDS011;65035;44.726;37.764;2023-03-05T08:08:22;3.63;;;1.65;;
75798;SDS011;65035;44.726;37.764;2023-03-05T08:09:25;3.28;;;1.50;;
75798;SDS011;65035;44.726;37.764;2023-03-05T08:10:29;4.32;;;2.38;;
75798;SDS011;65035;44.726;37.764;2023-03-05T08:11:32;3.45;;;1.50;;
75798;SDS011;65035;44.726;37.764;2023-03-05T08:12:35;4.60;;;1.38;;
75798;SDS011;65035;44.726;37.764;2023-03-05T08:14:41;3.72;;;1.27;;
75798;SDS011;65035;44.726;37.764;2023-03-05T08:15:44;3.58;;;1.38;;
75798;SDS011;65035;44.726;37.764;2023-03-05T08:16:47;3.83;;;1.67;;
75798;SDS011;65035;44.726;37.764;2023-03-05T08:17:53;3.85;;;1.63;;
75798;SDS011;65035;44.726;37.764;2023-03-05T08:18:57;3.75;;;1.65;;
75798;SDS011;65035;44.726;37.764;2023-03-05T08:20:01;3.13;;;1.45;;
75798;SDS011;65035;44.726;37.764;2023-03-05T08:21:13;4.28;;;1.85;;
75798;SDS011;65035;44.726;37.764;2023-03-05T08:22:17;3.38;;;1.45;;
75798;SDS011;65035;44.726;37.764;2023-03-05T08:23:21;3.50;;;1.77;;
75798;SDS011;65035;44.726;37.764;2023-03-05T08:24:24;3.90;;;1.40;;
75798;SDS011;65035;44.726;37.764;2023-03-05T08:25:30;5.35;;;1.33;;
75798;SDS011;65035;44.726;37.764;2023-03-05T08:27:22;3.00;;;1.20;;
75798;SDS011;65035;44.726;37.764;2023-03-05T08:28:25;6.05;;;1.73;;
75798;SDS011;65035;44.726;37.764;2023-03-05T08:29:30;8.10;;;2.03;;
75798;SDS011;65035;44.726;37.764;2023-03-05T08:30:33;7.53;;;1.95;;
75798;SDS011;65035;44.726;37.764;2023-03-05T08:31:36;4.60;;;1.55;;
75798;SDS011;65035;44.726;37.764;2023-03-05T08:32:39;6.05;;;1.77;;
75798;SDS011;65035;44.726;37.764;2023-03-05T08:33:42;3.80;;;1.33;;
75798;SDS011;65035;44.726;37.764;2023-03-05T08:34:45;7.93;;;2.00;;
75798;SDS011;65035;44.726;37.764;2023-03-05T08:35:48;4.28;;;1.45;;
75798;SDS011;65035;44.726;37.764;2023-03-05T08:36:51;5.18;;;2.33;;
75798;SDS011;65035;44.726;37.764;2023-03-05T08:37:54;3.65;;;1.52;;
75798;SDS011;65035;44.726;37.764;2023-03-05T08:38:57;3.72;;;1.45;;
75798;SDS011;65035;44.726;37.764;2023-03-05T08:40:01;5.97;;;1.98;;
75798;SDS011;65035;44.726;37.764;2023-03-05T08:41:05;5.68;;;1.83;;
75798;SDS011;65035;44.726;37.764;2023-03-05T08:42:08;5.28;;;1.85;;
75798;SDS011;65035;44.726;37.764;2023-03-05T08:43:11;5.68;;;1.95;;
75798;SDS011;65035;44.726;37.764;2023-03-05T08:44:14;4.55;;;2.05;;
75798;SDS011;65035;44.726;37.764;2023-03-05T08:45:16;4.05;;;1.48;;
75798;SDS011;65035;44.726;37.764;2023-03-05T08:46:21;3.40;;;1.63;;
75798;SDS011;65035;44.726;37.764;2023-03-05T08:47:24;3.97;;;1.17;;
75798;SDS011;65035;44.726;37.764;2023-03-05T08:48:28;5.07;;;1.38;;
75798;SDS011;65035;44.726;37.764;2023-03-05T08:49:32;5.13;;;2.42;;
75798;SDS011;65035;44.726;37.764;2023-03-05T08:50:35;4.97;;;1.50;;
75798;SDS011;65035;44.726;37.764;2023-03-05T08:51:39;4.78;;;1.55;;
75798;SDS011;65035;44.726;37.764;2023-03-05T08:52:42;4.68;;;1.40;;
75798;SDS011;65035;44.726;37.764;2023-03-05T08:53:46;4.55;;;1.55;;
75798;SDS011;65035;44.726;37.764;2023-03-05T08:55:52;2.90;;;0.93;;
75798;SDS011;65035;44.726;37.764;2023-03-05T08:56:56;3.38;;;1.15;;
75798;SDS011;65035;44.726;37.764;2023-03-05T08:57:59;3.17;;;1.00;;
75798;SDS011;65035;44.726;37.764;2023-03-05T08:59:02;4.70;;;1.58;;
75798;SDS011;65035;44.726;37.764;2023-03-05T09:01:12;2.83;;;1.33;;
75798;SDS011;65035;44.726;37.764;2023-03-05T09:02:15;4.07;;;1.27;;
75798;SDS011;65035;44.726;37.764;2023-03-05T09:03:18;2.60;;;0.80;;
75798;SDS011;65035;44.726;37.764;2023-03-05T09:04:21;3.33;;;0.93;;
75798;SDS011;65035;44.726;37.764;2023-03-05T09:05:24;3.28;;;0.70;;
75798;SDS011;65035;44.726;37.764;2023-03-05T09:06:27;3.97;;;1.65;;
75798;SDS011;65035;44.726;37.764;2023-03-05T09:07:30;2.58;;;0.80;;
75798;SDS011;65035;44.726;37.764;2023-03-05T09:08:33;3.53;;;1.05;;
75798;SDS011;65035;44.726;37.764;2023-03-05T09:09:36;3.53;;;1.13;;
75798;SDS011;65035;44.726;37.764;2023-03-05T09:10:40;4.10;;;1.50;;
75798;SDS011;65035;44.726;37.764;2023-03-05T09:11:46;2.92;;;0.75;;
75798;SDS011;65035;44.726;37.764;2023-03-05T09:12:49;3.45;;;0.60;;
75798;SDS011;65035;44.726;37.764;2023-03-05T09:13:52;2.65;;;0.80;;
75798;SDS011;65035;44.726;37.764;2023-03-05T09:14:55;2.40;;;0.90;;
75798;SDS011;65035;44.726;37.764;2023-03-05T09:16:00;4.13;;;1.05;;
75798;SDS011;65035;44.726;37.764;2023-03-05T09:17:05;2.85;;;0.85;;
75798;SDS011;65035;44.726;37.764;2023-03-05T09:18:56;3.40;;;1.45;;
75798;SDS011;65035;44.726;37.764;2023-03-05T09:20:02;3.83;;;1.00;;
75798;SDS011;65035;44.726;37.764;2023-03-05T09:21:09;4.07;;;1.13;;
75798;SDS011;65035;44.726;37.764;2023-03-05T09:22:14;3.20;;;1.13;;
75798;SDS011;65035;44.726;37.764;2023-03-05T09:23:17;2.80;;;1.17;;
75798;SDS011;65035;44.726;37.764;2023-03-05T09:24:21;4.07;;;1.13;;
75798;SDS011;65035;44.726;37.764;2023-03-05T09:25:24;3.10;;;1.20;;
75798;SDS011;65035;44.726;37.764;2023-03-05T09:27:32;4.47;;;1.83;;
75798;SDS011;65035;44.726;37.764;2023-03-05T09:28:36;5.53;;;1.23;;
75798;SDS011;65035;44.726;37.764;2023-03-05T09:29:39;4.20;;;1.10;;
75798;SDS011;65035;44.726;37.764;2023-03-05T09:30:44;5.95;;;1.52;;
75798;SDS011;65035;44.726;37.764;2023-03-05T09:31:49;4.55;;;1.05;;
75798;SDS011;65035;44.726;37.764;2023-03-05T09:32:53;3.05;;;1.00;;
75798;SDS011;65035;44.726;37.764;2023-03-05T09:33:56;3.83;;;1.95;;
75798;SDS011;65035;44.726;37.764;2023-03-05T09:35:01;3.47;;;1.20;;
75798;SDS011;65035;44.726;37.764;2023-03-05T09:36:05;3.50;;;1.63;;
75798;SDS011;65035;44.726;37.764;2023-03-05T09:37:23;3.03;;;1.00;;
75798;SDS011;65035;44.726;37.764;2023-03-05T09:51:39;4.13;;;3.10;;
75798;SDS011;65035;44.726;37.764;2023-03-05T09:53:14;4.45;;;2.97;;
75798;SDS011;65035;44.726;37.764;2023-03-05T09:54:35;5.45;;;3.35;;
75798;SDS011;65035;44.726;37.764;2023-03-05T09:55:44;4.18;;;2.50;;
75798;SDS011;65035;44.726;37.764;2023-03-05T09:56:54;3.95;;;2.58;;
75798;SDS011;65035;44.726;37.764;2023-03-05T09:58:15;4.60;;;2.55;;
75798;SDS011;65035;44.726;37.764;2023-03-05T10:01:39;4.43;;;2.15;;
75798;SDS011;65035;44.726;37.764;2023-03-05T10:02:50;2.97;;;0.47;;
75798;SDS011;65035;44.726;37.764;2023-03-05T10:03:58;4.18;;;3.05;;
75798;SDS011;65035;44.726;37.764;2023-03-05T10:09:06;3.83;;;2.45;;
75798;SDS011;65035;44.726;37.764;2023-03-05T10:10:09;4.97;;;2.47;;
75798;SDS011;65035;44.726;37.764;2023-03-05T10:13:45;4.28;;;2.85;;
75798;SDS011;65035;44.726;37.764;2023-03-05T10:14:48;3.08;;;1.02;;
75798;SDS011;65035;44.726;37.764;2023-03-05T10:20:15;3.42;;;2.78;;
75798;SDS011;65035;44.726;37.764;2023-03-05T10:26:22;7.32;;;1.73;;
75798;SDS011;65035;44.726;37.764;2023-03-05T10:31:29;3.30;;;0.70;;
75798;SDS011;65035;44.726;37.764;2023-03-05T10:36:56;3.78;;;0.70;;
75798;SDS011;65035;44.726;37.764;2023-03-05T10:42:05;3.60;;;0.95;;
75798;SDS011;65035;44.726;37.764;2023-03-05T10:43:27;2.58;;;0.93;;
75798;SDS011;65035;44.726;37.764;2023-03-05T10:44:49;4.70;;;1.83;;
75798;SDS011;65035;44.726;37.764;2023-03-05T10:50:00;16.45;;;3.10;;
75798;SDS011;65035;44.726;37.764;2023-03-05T10:51:51;21.70;;;3.53;;
75798;SDS011;65035;44.726;37.764;2023-03-05T10:54:47;8.07;;;3.03;;
75798;SDS011;65035;44.726;37.764;2023-03-05T10:55:51;13.35;;;4.70;;
75798;SDS011;65035;44.726;37.764;2023-03-05T10:57:03;15.85;;;3.38;;
75798;SDS011;65035;44.726;37.764;2023-03-05T11:00:10;10.35;;;1.63;;
75798;SDS011;65035;44.726;37.764;2023-03-05T11:01:21;15.38;;;2.80;;
75798;SDS011;65035;44.726;37.764;2023-03-05T11:02:24;13.07;;;1.63;;
75798;SDS011;65035;44.726;37.764;2023-03-05T11:06:48;11.10;;;2.08;;
75798;SDS011;65035;44.726;37.764;2023-03-05T11:07:54;12.90;;;2.25;;
75798;SDS011;65035;44.726;37.764;2023-03-05T11:10:21;7.78;;;1.38;;
75798;SDS011;65035;44.726;37.764;2023-03-05T11:11:24;6.40;;;1.42;;
75798;SDS011;65035;44.726;37.764;2023-03-05T11:12:34;12.27;;;2.63;;
75798;SDS011;65035;44.726;37.764;2023-03-05T11:13:42;7.82;;;1.20;;
75798;SDS011;65035;44.726;37.764;2023-03-05T11:16:20;6.28;;;1.30;;
75798;SDS011;65035;44.726;37.764;2023-03-05T11:17:30;7.50;;;1.35;;
75798;SDS011;65035;44.726;37.764;2023-03-05T11:18:44;7.88;;;1.40;;
75798;SDS011;65035;44.726;37.764;2023-03-05T11:19:48;5.55;;;1.25;;
75798;SDS011;65035;44.726;37.764;2023-03-05T11:20:52;7.35;;;1.38;;
75798;SDS011;65035;44.726;37.764;2023-03-05T11:23:19;7.05;;;1.35;;
75798;SDS011;65035;44.726;37.764;2023-03-05T11:24:26;8.05;;;2.08;;
75798;SDS011;65035;44.726;37.764;2023-03-05T11:25:29;6.95;;;1.00;;
75798;SDS011;65035;44.726;37.764;2023-03-05T11:26:34;4.90;;;1.60;;
75798;SDS011;65035;44.726;37.764;2023-03-05T11:27:43;4.97;;;1.42;;
75798;SDS011;65035;44.726;37.764;2023-03-05T11:29:51;6.78;;;1.45;;
75798;SDS011;65035;44.726;37.764;2023-03-05T11:30:55;7.15;;;1.13;;
75798;SDS011;65035;44.726;37.764;2023-03-05T11:33:23;4.88;;;1.35;;
75798;SDS011;65035;44.726;37.764;2023-03-05T11:34:30;7.10;;;1.45;;
75798;SDS011;65035;44.726;37.764;2023-03-05T11:36:26;7.35;;;3.15;;
75798;SDS011;65035;44.726;37.764;2023-03-05T11:37:30;6.60;;;3.17;;
75798;SDS011;65035;44.726;37.764;2023-03-05T11:38:36;5.63;;;3.42;;
75798;SDS011;65035;44.726;37.764;2023-03-05T11:41:30;5.30;;;2.35;;
75798;SDS011;65035;44.726;37.764;2023-03-05T11:43:47;5.80;;;1.20;;
75798;SDS011;65035;44.726;37.764;2023-03-05T11:46:02;5.00;;;1.80;;
75798;SDS011;65035;44.726;37.764;2023-03-05T11:47:22;6.65;;;1.20;;
75798;SDS011;65035;44.726;37.764;2023-03-05T11:52:18;4.43;;;1.80;;
75798;SDS011;65035;44.726;37.764;2023-03-05T11:53:28;4.78;;;1.52;;
75798;SDS011;65035;44.726;37.764;2023-03-05T11:56:04;4.25;;;0.82;;
75798;SDS011;65035;44.726;37.764;2023-03-05T11:57:20;3.03;;;1.40;;
75798;SDS011;65035;44.726;37.764;2023-03-05T11:59:29;5.22;;;1.20;;
75798;SDS011;65035;44.726;37.764;2023-03-05T12:00:36;6.43;;;1.38;;
75798;SDS011;65035;44.726;37.764;2023-03-05T12:01:46;6.85;;;1.33;;
75798;SDS011;65035;44.726;37.764;2023-03-05T12:02:52;4.35;;;1.55;;
75798;SDS011;65035;44.726;37.764;2023-03-05T12:03:58;4.90;;;1.80;;
75798;SDS011;65035;44.726;37.764;2023-03-05T12:05:02;4.75;;;1.10;;
75798;SDS011;65035;44.726;37.764;2023-03-05T12:07:36;6.53;;;1.75;;
75798;SDS011;65035;44.726;37.764;2023-03-05T12:08:43;3.70;;;2.45;;
75798;SDS011;65035;44.726;37.764;2023-03-05T12:09:51;4.93;;;1.50;;
75798;SDS011;65035;44.726;37.764;2023-03-05T12:10:54;5.45;;;1.02;;
75798;SDS011;65035;44.726;37.764;2023-03-05T12:12:11;5.32;;;1.75;;
75798;SDS011;65035;44.726;37.764;2023-03-05T12:16:03;3.38;;;1.05;;
75798;SDS011;65035;44.726;37.764;2023-03-05T12:17:38;5.03;;;1.02;;
75798;SDS011;65035;44.726;37.764;2023-03-05T12:23:12;5.80;;;2.88;;
75798;SDS011;65035;44.726;37.764;2023-03-05T12:28:08;4.55;;;2.60;;
75798;SDS011;65035;44.726;37.764;2023-03-05T12:29:59;4.20;;;3.80;;
75798;SDS011;65035;44.726;37.764;2023-03-05T12:30:56;4.70;;;2.70;;
75798;SDS011;65035;44.726;37.764;2023-03-05T12:32:02;5.20;;;2.17;;
75798;SDS011;65035;44.726;37.764;2023-03-05T12:33:52;3.53;;;2.72;;
75798;SDS011;65035;44.726;37.764;2023-03-05T12:35:43;5.15;;;2.42;;
75798;SDS011;65035;44.726;37.764;2023-03-05T12:36:46;4.85;;;2.47;;
75798;SDS011;65035;44.726;37.764;2023-03-05T12:38:56;5.53;;;2.15;;
75798;SDS011;65035;44.726;37.764;2023-03-05T12:43:32;5.60;;;3.15;;
75798;SDS011;65035;44.726;37.764;2023-03-05T12:45:41;4.32;;;2.45;;
75798;SDS011;65035;44.726;37.764;2023-03-05T12:46:45;3.63;;;2.35;;
75798;SDS011;65035;44.726;37.764;2023-03-05T12:51:35;5.55;;;2.83;;
75798;SDS011;65035;44.726;37.764;2023-03-05T12:52:41;3.20;;;1.83;;
75798;SDS011;65035;44.726;37.764;2023-03-05T12:53:49;4.70;;;2.20;;
75798;SDS011;65035;44.726;37.764;2023-03-05T12:54:55;4.35;;;2.65;;
75798;SDS011;65035;44.726;37.764;2023-03-05T12:56:12;3.67;;;2.40;;